sensor_id;sensor_type;location;lat;lon;timestamp;temperature;humidity
22192;DHT22;11261;52.456;10.850;2023-11-18T00:00:33;2.60;99.90
22192;DHT22;11261;52.456;10.850;2023-11-18T00:03:01;2.60;99.90
22192;DHT22;11261;52.456;10.850;2023-11-18T00:05:30;2.50;99.90
22192;DHT22;11261;52.456;10.850;2023-11-18T00:07:59;2.50;99.90
22192;DHT22;11261;52.456;10.850;2023-11-18T00:10:28;2.50;99.90
22192;DHT22;11261;52.456;10.850;2023-11-18T00:12:58;2.50;99.90
22192;DHT22;11261;52.456;10.850;2023-11-18T00:15:28;2.50;99.90
22192;DHT22;11261;52.456;10.850;2023-11-18T00:17:57;2.40;99.90
22192;DHT22;11261;52.456;10.850;2023-11-18T00:20:25;2.50;99.90
22192;DHT22;11261;52.456;10.850;2023-11-18T00:22:54;2.40;99.90
22192;DHT22;11261;52.456;10.850;2023-11-18T00:25:22;2.30;99.90
22192;DHT22;11261;52.456;10.850;2023-11-18T00:27:50;2.30;99.90
22192;DHT22;11261;52.456;10.850;2023-11-18T00:30:20;2.10;99.90
22192;DHT22;11261;52.456;10.850;2023-11-18T00:32:48;2.10;99.90
22192;DHT22;11261;52.456;10.850;2023-11-18T00:35:17;2.20;99.90
22192;DHT22;11261;52.456;10.850;2023-11-18T00:37:46;2.20;99.90
22192;DHT22;11261;52.456;10.850;2023-11-18T00:40:15;2.20;99.90
22192;DHT22;11261;52.456;10.850;2023-11-18T00:42:45;2.10;99.90
22192;DHT22;11261;52.456;10.850;2023-11-18T00:45:14;2.10;99.90
22192;DHT22;11261;52.456;10.850;2023-11-18T00:47:44;2.10;99.90
22192;DHT22;11261;52.456;10.850;2023-11-18T00:50:12;2.00;99.90
22192;DHT22;11261;52.456;10.850;2023-11-18T00:52:41;2.00;99.90
22192;DHT22;11261;52.456;10.850;2023-11-18T00:55:10;2.00;99.90
22192;DHT22;11261;52.456;10.850;2023-11-18T00:57:38;2.00;99.90
22192;DHT22;11261;52.456;10.850;2023-11-18T01:00:08;1.90;99.90
22192;DHT22;11261;52.456;10.850;2023-11-18T01:02:43;1.90;99.90
22192;DHT22;11261;52.456;10.850;2023-11-18T01:05:11;1.80;99.90
22192;DHT22;11261;52.456;10.850;2023-11-18T01:07:41;1.70;99.90
22192;DHT22;11261;52.456;10.850;2023-11-18T01:10:10;1.80;99.90
22192;DHT22;11261;52.456;10.850;2023-11-18T01:12:41;1.80;99.90
22192;DHT22;11261;52.456;10.850;2023-11-18T01:15:11;1.70;99.90
22192;DHT22;11261;52.456;10.850;2023-11-18T01:17:43;1.80;99.90
22192;DHT22;11261;52.456;10.850;2023-11-18T01:20:11;1.90;99.90
22192;DHT22;11261;52.456;10.850;2023-11-18T01:22:40;1.90;99.90
22192;DHT22;11261;52.456;10.850;2023-11-18T01:25:12;1.90;99.90
22192;DHT22;11261;52.456;10.850;2023-11-18T01:27:41;1.80;99.90
22192;DHT22;11261;52.456;10.850;2023-11-18T01:30:10;1.80;99.90
22192;DHT22;11261;52.456;10.850;2023-11-18T01:32:39;1.90;99.90
22192;DHT22;11261;52.456;10.850;2023-11-18T01:35:10;2.00;99.90
22192;DHT22;11261;52.456;10.850;2023-11-18T01:37:39;2.00;99.90
22192;DHT22;11261;52.456;10.850;2023-11-18T01:40:08;2.00;99.90
22192;DHT22;11261;52.456;10.850;2023-11-18T01:42:42;2.10;99.90
22192;DHT22;11261;52.456;10.850;2023-11-18T01:45:10;2.00;99.90
22192;DHT22;11261;52.456;10.850;2023-11-18T01:47:39;2.10;99.90
22192;DHT22;11261;52.456;10.850;2023-11-18T01:50:12;2.00;99.90
22192;DHT22;11261;52.456;10.850;2023-11-18T01:52:42;2.00;99.90
22192;DHT22;11261;52.456;10.850;2023-11-18T01:55:13;2.00;99.90
22192;DHT22;11261;52.456;10.850;2023-11-18T01:57:42;2.00;99.90
22192;DHT22;11261;52.456;10.850;2023-11-18T02:00:13;2.00;99.90
22192;DHT22;11261;52.456;10.850;2023-11-18T02:02:45;2.00;99.90
22192;DHT22;11261;52.456;10.850;2023-11-18T02:05:15;2.00;99.90
22192;DHT22;11261;52.456;10.850;2023-11-18T02:07:45;2.00;99.90
22192;DHT22;11261;52.456;10.850;2023-11-18T02:10:14;2.00;99.90
22192;DHT22;11261;52.456;10.850;2023-11-18T02:12:48;2.00;99.90
22192;DHT22;11261;52.456;10.850;2023-11-18T02:15:21;1.90;99.90
22192;DHT22;11261;52.456;10.850;2023-11-18T02:17:53;1.90;99.90
22192;DHT22;11261;52.456;10.850;2023-11-18T02:20:23;1.90;99.90
22192;DHT22;11261;52.456;10.850;2023-11-18T02:22:53;2.00;99.90
22192;DHT22;11261;52.456;10.850;2023-11-18T02:25:24;2.10;99.90
22192;DHT22;11261;52.456;10.850;2023-11-18T02:27:57;2.10;99.90
22192;DHT22;11261;52.456;10.850;2023-11-18T02:30:26;2.10;99.90
22192;DHT22;11261;52.456;10.850;2023-11-18T02:33:02;2.20;99.90
22192;DHT22;11261;52.456;10.850;2023-11-18T02:35:36;2.20;99.90
22192;DHT22;11261;52.456;10.850;2023-11-18T02:38:06;2.20;99.90
22192;DHT22;11261;52.456;10.850;2023-11-18T02:40:39;2.30;99.90
22192;DHT22;11261;52.456;10.850;2023-11-18T02:43:12;2.40;99.90
22192;DHT22;11261;52.456;10.850;2023-11-18T02:45:42;2.40;99.90
22192;DHT22;11261;52.456;10.850;2023-11-18T02:48:11;2.40;99.90
22192;DHT22;11261;52.456;10.850;2023-11-18T02:50:39;2.50;99.90
22192;DHT22;11261;52.456;10.850;2023-11-18T02:53:08;2.50;99.90
22192;DHT22;11261;52.456;10.850;2023-11-18T02:55:37;2.50;99.90
22192;DHT22;11261;52.456;10.850;2023-11-18T02:58:08;2.50;99.90
22192;DHT22;11261;52.456;10.850;2023-11-18T03:00:38;2.50;99.90
22192;DHT22;11261;52.456;10.850;2023-11-18T03:03:06;2.60;99.90
22192;DHT22;11261;52.456;10.850;2023-11-18T03:05:34;2.70;99.90
22192;DHT22;11261;52.456;10.850;2023-11-18T03:08:04;2.70;99.90
22192;DHT22;11261;52.456;10.850;2023-11-18T03:10:33;2.60;99.90
22192;DHT22;11261;52.456;10.850;2023-11-18T03:13:02;2.60;99.90
22192;DHT22;11261;52.456;10.850;2023-11-18T03:15:30;2.70;99.90
22192;DHT22;11261;52.456;10.850;2023-11-18T03:18:00;2.60;99.90
22192;DHT22;11261;52.456;10.850;2023-11-18T03:20:29;2.70;99.90
22192;DHT22;11261;52.456;10.850;2023-11-18T03:23:00;2.60;99.90
22192;DHT22;11261;52.456;10.850;2023-11-18T03:25:29;2.70;99.90
22192;DHT22;11261;52.456;10.850;2023-11-18T03:27:57;2.60;99.90
22192;DHT22;11261;52.456;10.850;2023-11-18T03:30:26;2.70;99.90
22192;DHT22;11261;52.456;10.850;2023-11-18T03:32:56;2.70;99.90
22192;DHT22;11261;52.456;10.850;2023-11-18T03:35:26;2.70;99.90
22192;DHT22;11261;52.456;10.850;2023-11-18T03:37:54;2.80;99.90
22192;DHT22;11261;52.456;10.850;2023-11-18T03:40:23;2.80;99.90
22192;DHT22;11261;52.456;10.850;2023-11-18T03:42:51;2.90;99.90
22192;DHT22;11261;52.456;10.850;2023-11-18T03:45:20;2.90;99.90
22192;DHT22;11261;52.456;10.850;2023-11-18T03:47:50;2.90;99.90
22192;DHT22;11261;52.456;10.850;2023-11-18T03:50:18;2.90;99.90
22192;DHT22;11261;52.456;10.850;2023-11-18T03:52:48;2.80;99.90
22192;DHT22;11261;52.456;10.850;2023-11-18T03:55:17;2.80;99.90
22192;DHT22;11261;52.456;10.850;2023-11-18T03:57:45;2.80;99.90
22192;DHT22;11261;52.456;10.850;2023-11-18T04:00:16;2.80;99.90
22192;DHT22;11261;52.456;10.850;2023-11-18T04:02:44;2.80;99.90
22192;DHT22;11261;52.456;10.850;2023-11-18T04:05:13;2.80;99.90
22192;DHT22;11261;52.456;10.850;2023-11-18T04:07:41;2.80;99.90
22192;DHT22;11261;52.456;10.850;2023-11-18T04:10:11;2.80;99.90
22192;DHT22;11261;52.456;10.850;2023-11-18T04:12:39;2.80;99.90
22192;DHT22;11261;52.456;10.850;2023-11-18T04:15:08;2.80;99.90
22192;DHT22;11261;52.456;10.850;2023-11-18T04:17:38;2.80;99.90
22192;DHT22;11261;52.456;10.850;2023-11-18T04:20:10;2.90;99.90
22192;DHT22;11261;52.456;10.850;2023-11-18T04:22:40;2.80;99.90
22192;DHT22;11261;52.456;10.850;2023-11-18T04:25:11;2.80;99.90
22192;DHT22;11261;52.456;10.850;2023-11-18T04:27:40;2.70;99.90
22192;DHT22;11261;52.456;10.850;2023-11-18T04:30:12;2.80;99.90
22192;DHT22;11261;52.456;10.850;2023-11-18T04:32:41;2.80;99.90
22192;DHT22;11261;52.456;10.850;2023-11-18T04:35:11;2.90;99.90
22192;DHT22;11261;52.456;10.850;2023-11-18T04:37:40;2.90;99.90
22192;DHT22;11261;52.456;10.850;2023-11-18T04:40:12;2.80;99.90
22192;DHT22;11261;52.456;10.850;2023-11-18T04:42:40;2.90;99.90
22192;DHT22;11261;52.456;10.850;2023-11-18T04:45:09;2.90;99.90
22192;DHT22;11261;52.456;10.850;2023-11-18T04:47:38;2.80;99.90
22192;DHT22;11261;52.456;10.850;2023-11-18T04:50:07;2.70;99.90
22192;DHT22;11261;52.456;10.850;2023-11-18T04:52:36;2.60;99.90
22192;DHT22;11261;52.456;10.850;2023-11-18T04:55:05;2.50;99.90
22192;DHT22;11261;52.456;10.850;2023-11-18T04:57:35;2.50;99.90
22192;DHT22;11261;52.456;10.850;2023-11-18T05:00:07;2.50;99.90
22192;DHT22;11261;52.456;10.850;2023-11-18T05:02:38;2.40;99.90
22192;DHT22;11261;52.456;10.850;2023-11-18T05:05:07;2.40;99.90
22192;DHT22;11261;52.456;10.850;2023-11-18T05:07:36;2.40;99.90
22192;DHT22;11261;52.456;10.850;2023-11-18T05:10:06;2.40;99.90
22192;DHT22;11261;52.456;10.850;2023-11-18T05:12:38;2.40;99.90
22192;DHT22;11261;52.456;10.850;2023-11-18T05:15:07;2.40;99.90
22192;DHT22;11261;52.456;10.850;2023-11-18T05:17:36;2.30;99.90
22192;DHT22;11261;52.456;10.850;2023-11-18T05:20:06;2.20;99.90
22192;DHT22;11261;52.456;10.850;2023-11-18T05:22:36;2.10;99.90
22192;DHT22;11261;52.456;10.850;2023-11-18T05:25:05;2.10;99.90
22192;DHT22;11261;52.456;10.850;2023-11-18T05:27:34;2.10;99.90
22192;DHT22;11261;52.456;10.850;2023-11-18T05:30:05;2.10;99.90
22192;DHT22;11261;52.456;10.850;2023-11-18T05:32:34;2.10;99.90
22192;DHT22;11261;52.456;10.850;2023-11-18T05:35:04;2.00;99.90
22192;DHT22;11261;52.456;10.850;2023-11-18T05:37:33;2.00;99.90
22192;DHT22;11261;52.456;10.850;2023-11-18T05:40:06;2.00;99.90
22192;DHT22;11261;52.456;10.850;2023-11-18T05:42:35;2.00;99.90
22192;DHT22;11261;52.456;10.850;2023-11-18T05:45:08;1.90;99.90
22192;DHT22;11261;52.456;10.850;2023-11-18T05:47:45;1.90;99.90
22192;DHT22;11261;52.456;10.850;2023-11-18T05:50:13;1.90;99.90
22192;DHT22;11261;52.456;10.850;2023-11-18T05:52:43;1.90;99.90
22192;DHT22;11261;52.456;10.850;2023-11-18T05:55:12;1.80;99.90
22192;DHT22;11261;52.456;10.850;2023-11-18T05:57:40;1.80;99.90
22192;DHT22;11261;52.456;10.850;2023-11-18T06:00:14;1.80;99.90
22192;DHT22;11261;52.456;10.850;2023-11-18T06:02:53;1.70;99.90
22192;DHT22;11261;52.456;10.850;2023-11-18T06:05:23;1.70;99.90
22192;DHT22;11261;52.456;10.850;2023-11-18T06:07:53;1.60;99.90
22192;DHT22;11261;52.456;10.850;2023-11-18T06:10:22;1.50;99.90
22192;DHT22;11261;52.456;10.850;2023-11-18T06:12:50;1.40;99.90
22192;DHT22;11261;52.456;10.850;2023-11-18T06:15:21;1.40;99.90
22192;DHT22;11261;52.456;10.850;2023-11-18T06:17:50;1.30;99.90
22192;DHT22;11261;52.456;10.850;2023-11-18T06:20:19;1.30;99.90
22192;DHT22;11261;52.456;10.850;2023-11-18T06:22:47;1.20;99.90
22192;DHT22;11261;52.456;10.850;2023-11-18T06:25:16;1.30;99.90
22192;DHT22;11261;52.456;10.850;2023-11-18T06:27:45;1.30;99.90
22192;DHT22;11261;52.456;10.850;2023-11-18T06:30:14;1.30;99.90
22192;DHT22;11261;52.456;10.850;2023-11-18T06:32:45;1.40;99.90
22192;DHT22;11261;52.456;10.850;2023-11-18T06:35:14;1.30;99.90
22192;DHT22;11261;52.456;10.850;2023-11-18T06:37:43;1.30;99.90
22192;DHT22;11261;52.456;10.850;2023-11-18T06:40:13;1.30;99.90
22192;DHT22;11261;52.456;10.850;2023-11-18T06:43:03;1.40;99.90
22192;DHT22;11261;52.456;10.850;2023-11-18T06:45:42;1.40;99.90
22192;DHT22;11261;52.456;10.850;2023-11-18T06:48:12;1.40;99.90
22192;DHT22;11261;52.456;10.850;2023-11-18T06:50:43;1.30;99.90
22192;DHT22;11261;52.456;10.850;2023-11-18T06:53:12;1.20;99.90
22192;DHT22;11261;52.456;10.850;2023-11-18T06:55:42;1.10;99.90
22192;DHT22;11261;52.456;10.850;2023-11-18T06:58:10;1.20;99.90
22192;DHT22;11261;52.456;10.850;2023-11-18T07:00:40;1.30;99.90
22192;DHT22;11261;52.456;10.850;2023-11-18T07:03:08;1.60;99.90
22192;DHT22;11261;52.456;10.850;2023-11-18T07:05:38;2.00;99.90
22192;DHT22;11261;52.456;10.850;2023-11-18T07:08:07;2.30;99.90
22192;DHT22;11261;52.456;10.850;2023-11-18T07:10:36;2.60;99.90
22192;DHT22;11261;52.456;10.850;2023-11-18T07:13:05;2.70;99.90
22192;DHT22;11261;52.456;10.850;2023-11-18T07:15:35;3.20;99.90
22192;DHT22;11261;52.456;10.850;2023-11-18T07:18:04;3.50;99.90
22192;DHT22;11261;52.456;10.850;2023-11-18T07:20:33;3.60;99.90
22192;DHT22;11261;52.456;10.850;2023-11-18T07:23:03;3.90;99.90
22192;DHT22;11261;52.456;10.850;2023-11-18T07:25:31;4.10;99.90
22192;DHT22;11261;52.456;10.850;2023-11-18T07:28:01;4.30;99.90
22192;DHT22;11261;52.456;10.850;2023-11-18T07:30:29;4.80;99.90
22192;DHT22;11261;52.456;10.850;2023-11-18T07:32:58;5.10;99.90
22192;DHT22;11261;52.456;10.850;2023-11-18T07:35:28;5.30;99.90
22192;DHT22;11261;52.456;10.850;2023-11-18T07:37:57;5.50;99.90
22192;DHT22;11261;52.456;10.850;2023-11-18T07:40:27;5.20;99.90
22192;DHT22;11261;52.456;10.850;2023-11-18T07:42:56;4.80;99.90
22192;DHT22;11261;52.456;10.850;2023-11-18T07:45:34;4.50;99.90
22192;DHT22;11261;52.456;10.850;2023-11-18T07:48:05;4.10;99.90
22192;DHT22;11261;52.456;10.850;2023-11-18T07:50:34;4.00;99.90
22192;DHT22;11261;52.456;10.850;2023-11-18T07:53:03;4.10;99.90
22192;DHT22;11261;52.456;10.850;2023-11-18T07:55:35;4.50;99.90
22192;DHT22;11261;52.456;10.850;2023-11-18T07:58:06;5.20;99.90
22192;DHT22;11261;52.456;10.850;2023-11-18T08:00:37;5.50;99.90
22192;DHT22;11261;52.456;10.850;2023-11-18T08:03:07;5.40;99.90
22192;DHT22;11261;52.456;10.850;2023-11-18T08:05:39;5.20;99.90
22192;DHT22;11261;52.456;10.850;2023-11-18T08:08:07;5.10;99.90
22192;DHT22;11261;52.456;10.850;2023-11-18T08:10:40;5.00;99.90
22192;DHT22;11261;52.456;10.850;2023-11-18T08:13:11;4.60;99.90
22192;DHT22;11261;52.456;10.850;2023-11-18T08:15:41;4.20;99.90
22192;DHT22;11261;52.456;10.850;2023-11-18T08:18:09;4.30;99.90
22192;DHT22;11261;52.456;10.850;2023-11-18T08:20:38;4.80;99.90
22192;DHT22;11261;52.456;10.850;2023-11-18T08:23:07;5.20;99.90
22192;DHT22;11261;52.456;10.850;2023-11-18T08:25:36;5.20;99.90
22192;DHT22;11261;52.456;10.850;2023-11-18T08:28:08;5.30;99.90
22192;DHT22;11261;52.456;10.850;2023-11-18T08:30:37;5.30;99.90
22192;DHT22;11261;52.456;10.850;2023-11-18T08:33:06;5.30;99.90
22192;DHT22;11261;52.456;10.850;2023-11-18T08:35:36;5.20;99.90
22192;DHT22;11261;52.456;10.850;2023-11-18T08:38:04;4.90;99.90
22192;DHT22;11261;52.456;10.850;2023-11-18T08:40:34;4.60;99.90
22192;DHT22;11261;52.456;10.850;2023-11-18T08:43:03;4.50;99.90
22192;DHT22;11261;52.456;10.850;2023-11-18T08:45:36;4.30;99.90
22192;DHT22;11261;52.456;10.850;2023-11-18T08:48:05;4.50;99.90
22192;DHT22;11261;52.456;10.850;2023-11-18T08:50:35;4.50;99.90
22192;DHT22;11261;52.456;10.850;2023-11-18T08:53:07;4.30;99.90
22192;DHT22;11261;52.456;10.850;2023-11-18T08:55:37;4.30;99.90
22192;DHT22;11261;52.456;10.850;2023-11-18T08:58:18;3.90;99.90
22192;DHT22;11261;52.456;10.850;2023-11-18T09:00:58;3.70;99.90
22192;DHT22;11261;52.456;10.850;2023-11-18T09:03:33;4.00;99.90
22192;DHT22;11261;52.456;10.850;2023-11-18T09:06:10;4.30;99.90
22192;DHT22;11261;52.456;10.850;2023-11-18T09:08:46;4.50;99.90
22192;DHT22;11261;52.456;10.850;2023-11-18T09:11:21;4.60;99.90
22192;DHT22;11261;52.456;10.850;2023-11-18T09:13:51;4.70;99.90
22192;DHT22;11261;52.456;10.850;2023-11-18T09:16:23;4.90;99.90
22192;DHT22;11261;52.456;10.850;2023-11-18T09:18:52;4.90;99.90
22192;DHT22;11261;52.456;10.850;2023-11-18T09:21:21;5.20;99.90
22192;DHT22;11261;52.456;10.850;2023-11-18T09:23:52;5.80;99.90
22192;DHT22;11261;52.456;10.850;2023-11-18T09:26:23;6.40;99.90
22192;DHT22;11261;52.456;10.850;2023-11-18T09:28:53;6.70;99.90
22192;DHT22;11261;52.456;10.850;2023-11-18T09:31:24;7.00;99.90
22192;DHT22;11261;52.456;10.850;2023-11-18T09:33:53;6.90;99.90
22192;DHT22;11261;52.456;10.850;2023-11-18T09:36:25;6.90;99.90
22192;DHT22;11261;52.456;10.850;2023-11-18T09:38:56;6.90;99.90
22192;DHT22;11261;52.456;10.850;2023-11-18T09:41:25;6.80;99.90
22192;DHT22;11261;52.456;10.850;2023-11-18T09:43:55;6.80;99.90
22192;DHT22;11261;52.456;10.850;2023-11-18T09:46:27;6.60;99.90
22192;DHT22;11261;52.456;10.850;2023-11-18T09:49:06;6.30;99.90
22192;DHT22;11261;52.456;10.850;2023-11-18T09:51:44;6.60;99.90
22192;DHT22;11261;52.456;10.850;2023-11-18T09:54:19;7.00;99.90
22192;DHT22;11261;52.456;10.850;2023-11-18T09:56:56;7.40;99.90
22192;DHT22;11261;52.456;10.850;2023-11-18T09:59:43;7.70;99.90
22192;DHT22;11261;52.456;10.850;2023-11-18T10:02:24;7.70;99.90
22192;DHT22;11261;52.456;10.850;2023-11-18T10:04:54;7.90;99.90
22192;DHT22;11261;52.456;10.850;2023-11-18T10:07:26;7.70;99.90
22192;DHT22;11261;52.456;10.850;2023-11-18T10:09:57;7.70;99.90
22192;DHT22;11261;52.456;10.850;2023-11-18T10:12:26;7.60;99.90
22192;DHT22;11261;52.456;10.850;2023-11-18T10:14:57;8.30;99.90
22192;DHT22;11261;52.456;10.850;2023-11-18T10:17:27;8.10;99.90
22192;DHT22;11261;52.456;10.850;2023-11-18T10:19:57;8.20;99.90
22192;DHT22;11261;52.456;10.850;2023-11-18T10:22:27;8.40;99.90
22192;DHT22;11261;52.456;10.850;2023-11-18T10:24:57;8.00;99.90
22192;DHT22;11261;52.456;10.850;2023-11-18T10:27:29;8.20;99.90
22192;DHT22;11261;52.456;10.850;2023-11-18T10:30:02;8.20;99.90
22192;DHT22;11261;52.456;10.850;2023-11-18T10:32:32;7.80;99.90
22192;DHT22;11261;52.456;10.850;2023-11-18T10:35:04;8.00;99.90
22192;DHT22;11261;52.456;10.850;2023-11-18T10:37:33;8.30;99.90
22192;DHT22;11261;52.456;10.850;2023-11-18T10:40:10;8.40;99.90
22192;DHT22;11261;52.456;10.850;2023-11-18T10:42:41;8.70;99.90
22192;DHT22;11261;52.456;10.850;2023-11-18T10:45:23;8.50;99.90
22192;DHT22;11261;52.456;10.850;2023-11-18T10:47:56;8.50;99.90
22192;DHT22;11261;52.456;10.850;2023-11-18T10:50:25;8.00;99.90
22192;DHT22;11261;52.456;10.850;2023-11-18T10:53:00;8.10;99.90
22192;DHT22;11261;52.456;10.850;2023-11-18T10:55:36;7.70;99.90
22192;DHT22;11261;52.456;10.850;2023-11-18T10:58:05;8.00;99.90
22192;DHT22;11261;52.456;10.850;2023-11-18T11:00:56;7.60;99.90
22192;DHT22;11261;52.456;10.850;2023-11-18T11:03:28;7.70;99.90
22192;DHT22;11261;52.456;10.850;2023-11-18T11:06:00;7.50;99.90
22192;DHT22;11261;52.456;10.850;2023-11-18T11:08:44;7.60;99.90
22192;DHT22;11261;52.456;10.850;2023-11-18T11:11:16;7.30;99.90
22192;DHT22;11261;52.456;10.850;2023-11-18T11:13:50;7.10;99.90
22192;DHT22;11261;52.456;10.850;2023-11-18T11:16:31;7.30;99.90
22192;DHT22;11261;52.456;10.850;2023-11-18T11:19:04;7.40;99.90
22192;DHT22;11261;52.456;10.850;2023-11-18T11:21:40;7.50;99.90
22192;DHT22;11261;52.456;10.850;2023-11-18T11:24:22;7.60;99.90
22192;DHT22;11261;52.456;10.850;2023-11-18T11:27:08;7.50;99.90
22192;DHT22;11261;52.456;10.850;2023-11-18T11:29:49;7.70;99.90
22192;DHT22;11261;52.456;10.850;2023-11-18T11:32:26;7.40;99.90
22192;DHT22;11261;52.456;10.850;2023-11-18T11:35:01;7.40;99.90
22192;DHT22;11261;52.456;10.850;2023-11-18T11:37:35;7.80;99.90
22192;DHT22;11261;52.456;10.850;2023-11-18T11:40:07;7.90;99.90
22192;DHT22;11261;52.456;10.850;2023-11-18T11:42:38;7.70;99.90
22192;DHT22;11261;52.456;10.850;2023-11-18T11:45:09;7.40;99.90
22192;DHT22;11261;52.456;10.850;2023-11-18T11:47:48;7.50;99.90
22192;DHT22;11261;52.456;10.850;2023-11-18T11:50:25;7.40;99.90
22192;DHT22;11261;52.456;10.850;2023-11-18T11:53:03;7.40;99.90
22192;DHT22;11261;52.456;10.850;2023-11-18T11:55:37;7.40;99.90
22192;DHT22;11261;52.456;10.850;2023-11-18T11:58:25;7.30;99.90
22192;DHT22;11261;52.456;10.850;2023-11-18T12:00:54;7.10;99.90
22192;DHT22;11261;52.456;10.850;2023-11-18T12:03:22;7.10;99.90
22192;DHT22;11261;52.456;10.850;2023-11-18T12:05:56;7.10;99.90
22192;DHT22;11261;52.456;10.850;2023-11-18T12:08:41;7.10;99.90
22192;DHT22;11261;52.456;10.850;2023-11-18T12:11:12;7.10;99.90
22192;DHT22;11261;52.456;10.850;2023-11-18T12:14:00;7.00;99.90
22192;DHT22;11261;52.456;10.850;2023-11-18T12:16:59;6.90;99.90
22192;DHT22;11261;52.456;10.850;2023-11-18T12:19:35;6.90;99.90
22192;DHT22;11261;52.456;10.850;2023-11-18T12:22:16;6.90;99.90
22192;DHT22;11261;52.456;10.850;2023-11-18T12:28:11;6.90;99.90
22192;DHT22;11261;52.456;10.850;2023-11-18T12:30:43;6.90;99.90
22192;DHT22;11261;52.456;10.850;2023-11-18T12:33:23;6.90;99.90
22192;DHT22;11261;52.456;10.850;2023-11-18T12:39:48;6.90;99.90
22192;DHT22;11261;52.456;10.850;2023-11-18T12:45:43;7.00;99.90
22192;DHT22;11261;52.456;10.850;2023-11-18T12:48:14;7.00;99.90
22192;DHT22;11261;52.456;10.850;2023-11-18T12:50:43;6.90;99.90
22192;DHT22;11261;52.456;10.850;2023-11-18T12:53:13;6.90;99.90
22192;DHT22;11261;52.456;10.850;2023-11-18T12:55:47;6.90;99.90
22192;DHT22;11261;52.456;10.850;2023-11-18T12:58:17;6.90;99.90
22192;DHT22;11261;52.456;10.850;2023-11-18T13:00:45;7.00;99.90
22192;DHT22;11261;52.456;10.850;2023-11-18T13:03:14;6.90;99.90
22192;DHT22;11261;52.456;10.850;2023-11-18T13:05:45;6.80;99.90
22192;DHT22;11261;52.456;10.850;2023-11-18T13:08:13;6.80;99.90
22192;DHT22;11261;52.456;10.850;2023-11-18T13:10:43;6.80;99.90
22192;DHT22;11261;52.456;10.850;2023-11-18T13:13:13;6.80;99.90
22192;DHT22;11261;52.456;10.850;2023-11-18T13:15:44;6.80;99.90
22192;DHT22;11261;52.456;10.850;2023-11-18T13:18:13;6.80;99.90
22192;DHT22;11261;52.456;10.850;2023-11-18T13:20:54;6.80;99.90
22192;DHT22;11261;52.456;10.850;2023-11-18T13:23:24;6.80;99.90
22192;DHT22;11261;52.456;10.850;2023-11-18T13:25:55;6.70;99.90
22192;DHT22;11261;52.456;10.850;2023-11-18T13:28:25;6.70;99.90
22192;DHT22;11261;52.456;10.850;2023-11-18T13:30:54;6.70;99.90
22192;DHT22;11261;52.456;10.850;2023-11-18T13:33:23;6.70;99.90
22192;DHT22;11261;52.456;10.850;2023-11-18T13:35:52;6.70;99.90
22192;DHT22;11261;52.456;10.850;2023-11-18T13:38:20;6.70;99.90
22192;DHT22;11261;52.456;10.850;2023-11-18T13:40:49;6.80;99.90
22192;DHT22;11261;52.456;10.850;2023-11-18T13:43:19;6.70;99.90
22192;DHT22;11261;52.456;10.850;2023-11-18T13:45:54;6.70;99.90
22192;DHT22;11261;52.456;10.850;2023-11-18T13:48:27;6.70;99.90
22192;DHT22;11261;52.456;10.850;2023-11-18T13:50:56;6.60;99.90
22192;DHT22;11261;52.456;10.850;2023-11-18T13:53:25;6.60;99.90
22192;DHT22;11261;52.456;10.850;2023-11-18T13:55:54;6.60;99.90
22192;DHT22;11261;52.456;10.850;2023-11-18T13:58:22;6.60;99.90
22192;DHT22;11261;52.456;10.850;2023-11-18T14:00:51;6.50;99.90
22192;DHT22;11261;52.456;10.850;2023-11-18T14:03:21;6.50;99.90
22192;DHT22;11261;52.456;10.850;2023-11-18T14:05:51;6.50;99.90
22192;DHT22;11261;52.456;10.850;2023-11-18T14:08:20;6.50;99.90
22192;DHT22;11261;52.456;10.850;2023-11-18T14:10:49;6.50;99.90
22192;DHT22;11261;52.456;10.850;2023-11-18T14:13:29;6.50;99.90
22192;DHT22;11261;52.456;10.850;2023-11-18T14:15:58;6.50;99.90
22192;DHT22;11261;52.456;10.850;2023-11-18T14:18:28;6.50;99.90
22192;DHT22;11261;52.456;10.850;2023-11-18T14:20:56;6.40;99.90
22192;DHT22;11261;52.456;10.850;2023-11-18T14:23:25;6.40;99.90
22192;DHT22;11261;52.456;10.850;2023-11-18T14:25:53;6.40;99.90
22192;DHT22;11261;52.456;10.850;2023-11-18T14:28:22;6.40;99.90
22192;DHT22;11261;52.456;10.850;2023-11-18T14:30:53;6.40;99.90
22192;DHT22;11261;52.456;10.850;2023-11-18T14:33:21;6.30;99.90
22192;DHT22;11261;52.456;10.850;2023-11-18T14:35:51;6.30;99.90
22192;DHT22;11261;52.456;10.850;2023-11-18T14:38:20;6.30;99.90
22192;DHT22;11261;52.456;10.850;2023-11-18T14:40:49;6.30;99.90
22192;DHT22;11261;52.456;10.850;2023-11-18T14:43:17;6.30;99.90
22192;DHT22;11261;52.456;10.850;2023-11-18T14:45:45;6.20;99.90
22192;DHT22;11261;52.456;10.850;2023-11-18T14:48:14;6.20;99.90
22192;DHT22;11261;52.456;10.850;2023-11-18T14:50:43;6.20;99.90
22192;DHT22;11261;52.456;10.850;2023-11-18T14:53:13;6.20;99.90
22192;DHT22;11261;52.456;10.850;2023-11-18T14:55:41;6.20;99.90
22192;DHT22;11261;52.456;10.850;2023-11-18T14:58:10;6.10;99.90
22192;DHT22;11261;52.456;10.850;2023-11-18T15:00:40;6.10;99.90
22192;DHT22;11261;52.456;10.850;2023-11-18T15:03:09;6.10;99.90
22192;DHT22;11261;52.456;10.850;2023-11-18T15:05:38;6.10;99.90
22192;DHT22;11261;52.456;10.850;2023-11-18T15:08:06;6.10;99.90
22192;DHT22;11261;52.456;10.850;2023-11-18T15:10:40;6.10;99.90
22192;DHT22;11261;52.456;10.850;2023-11-18T15:13:11;6.10;99.90
22192;DHT22;11261;52.456;10.850;2023-11-18T15:15:43;6.10;99.90
22192;DHT22;11261;52.456;10.850;2023-11-18T15:18:14;6.10;99.90
22192;DHT22;11261;52.456;10.850;2023-11-18T15:20:45;6.00;99.90
22192;DHT22;11261;52.456;10.850;2023-11-18T15:23:16;6.10;99.90
22192;DHT22;11261;52.456;10.850;2023-11-18T15:25:47;6.10;99.90
22192;DHT22;11261;52.456;10.850;2023-11-18T15:28:17;6.10;99.90
22192;DHT22;11261;52.456;10.850;2023-11-18T15:30:46;6.10;99.90
22192;DHT22;11261;52.456;10.850;2023-11-18T15:33:16;6.10;99.90
22192;DHT22;11261;52.456;10.850;2023-11-18T15:35:44;6.10;99.90
22192;DHT22;11261;52.456;10.850;2023-11-18T15:38:13;6.10;99.90
22192;DHT22;11261;52.456;10.850;2023-11-18T15:40:48;6.10;99.90
22192;DHT22;11261;52.456;10.850;2023-11-18T15:43:18;6.10;99.90
22192;DHT22;11261;52.456;10.850;2023-11-18T15:45:47;6.10;99.90
22192;DHT22;11261;52.456;10.850;2023-11-18T15:48:16;6.10;99.90
22192;DHT22;11261;52.456;10.850;2023-11-18T15:50:44;6.10;99.90
22192;DHT22;11261;52.456;10.850;2023-11-18T15:53:13;6.10;99.90
22192;DHT22;11261;52.456;10.850;2023-11-18T15:55:42;6.10;99.90
22192;DHT22;11261;52.456;10.850;2023-11-18T15:58:16;6.10;99.90
22192;DHT22;11261;52.456;10.850;2023-11-18T16:00:46;6.10;99.90
22192;DHT22;11261;52.456;10.850;2023-11-18T16:03:15;6.10;99.90